createdAt,value
2017-07-25T00:00:53.886Z,99784
2017-07-25T00:01:52.249Z,99780
2017-07-25T00:02:53.405Z,99782
2017-07-25T00:03:54.112Z,99784
2017-07-25T00:04:54.260Z,99785
2017-07-25T00:05:54.286Z,99776
2017-07-25T00:06:52.631Z,99784
2017-07-25T00:07:52.604Z,99785
2017-07-25T00:08:54.374Z,99784
2017-07-25T00:09:53.820Z,99777
2017-07-25T00:10:52.907Z,99786
2017-07-25T00:11:54.643Z,99776
2017-07-25T00:12:53.943Z,99770
2017-07-25T00:13:54.748Z,99779
2017-07-25T00:14:53.123Z,99780
2017-07-25T00:15:54.840Z,99777
2017-07-25T00:16:54.906Z,99773
2017-07-25T00:17:54.131Z,99771
2017-07-25T00:18:54.970Z,99767
2017-07-25T00:19:53.224Z,99770
2017-07-25T00:20:53.310Z,99770
2017-07-25T00:21:54.397Z,99774
2017-07-25T00:22:53.374Z,99773
2017-07-25T00:23:53.543Z,99775
2017-07-25T00:24:53.590Z,99771
2017-07-25T00:25:53.585Z,99766
2017-07-25T00:26:54.610Z,99756
2017-07-25T00:27:54.513Z,99757
2017-07-25T00:28:53.664Z,99768
2017-07-25T00:29:54.593Z,99764
2017-07-25T00:30:54.687Z,99763
2017-07-25T00:31:53.832Z,99752
2017-07-25T00:32:55.478Z,99751
2017-07-25T00:33:54.802Z,99753
2017-07-25T00:34:54.823Z,99751
2017-07-25T00:35:53.977Z,99759
2017-07-25T00:36:54.031Z,99758
2017-07-25T00:37:54.059Z,99760
2017-07-25T00:38:54.125Z,99747
2017-07-25T00:39:55.731Z,99758
2017-07-25T00:40:55.203Z,99761
2017-07-25T00:41:55.873Z,99758
2017-07-25T00:42:54.299Z,99761
2017-07-25T00:43:54.269Z,99760
2017-07-25T00:44:56.084Z,99765
2017-07-25T00:45:56.033Z,99760
2017-07-25T00:46:56.058Z,99762
2017-07-25T00:47:54.456Z,99760
2017-07-25T00:48:56.375Z,99756
2017-07-25T00:49:54.676Z,99758
2017-07-25T00:50:55.660Z,99755
2017-07-25T00:51:56.464Z,99758
2017-07-25T00:52:56.432Z,99751
2017-07-25T00:53:54.822Z,99756
2017-07-25T00:54:56.607Z,99752
2017-07-25T00:55:56.514Z,99753
2017-07-25T00:56:56.627Z,99757
2017-07-25T00:57:54.949Z,99754
2017-07-25T00:58:55.985Z,99757
2017-07-25T00:59:56.735Z,99755
2017-07-25T01:00:56.910Z,99751
2017-07-25T01:01:56.994Z,99755
2017-07-25T01:02:55.387Z,99755
2017-07-25T01:03:55.352Z,99752
2017-07-25T01:04:57.226Z,99755
2017-07-25T01:05:57.215Z,99759
2017-07-25T01:06:55.677Z,99756
2017-07-25T01:07:56.731Z,99756
2017-07-25T01:08:55.836Z,99759
2017-07-25T01:09:57.605Z,99756
2017-07-25T01:10:57.556Z,99761
2017-07-25T01:11:56.009Z,99760
2017-07-25T01:12:57.066Z,99759
2017-07-25T01:13:57.104Z,99759
2017-07-25T01:14:56.087Z,99758
2017-07-25T01:15:56.241Z,99755
2017-07-25T01:16:56.213Z,99755
2017-07-25T01:17:56.375Z,99754
2017-07-25T01:18:58.131Z,99753
2017-07-25T01:19:56.333Z,99751
2017-07-25T01:20:56.438Z,99756
2017-07-25T01:21:57.431Z,99749
2017-07-25T01:22:58.141Z,99753
2017-07-25T01:23:56.513Z,99751
2017-07-25T01:24:57.527Z,99748
2017-07-25T01:25:56.633Z,99747
2017-07-25T01:26:56.659Z,99749
2017-07-25T01:27:56.679Z,99746
2017-07-25T01:28:56.799Z,99743
2017-07-25T01:29:56.760Z,99748
2017-07-25T01:30:56.732Z,99740
2017-07-25T01:31:58.630Z,99745
2017-07-25T01:32:58.544Z,99747
2017-07-25T01:33:58.714Z,99736
2017-07-25T01:34:58.021Z,99742
2017-07-25T01:35:56.997Z,99734
2017-07-25T01:36:57.028Z,99741
2017-07-25T01:37:57.200Z,99745
2017-07-25T01:38:57.124Z,99740
2017-07-25T01:39:58.823Z,99742
2017-07-25T01:40:58.291Z,99742
2017-07-25T01:41:57.317Z,99739
2017-07-25T01:42:57.456Z,99741
2017-07-25T01:43:58.393Z,99742
2017-07-25T01:44:59.187Z,99739
2017-07-25T01:45:58.375Z,99738
2017-07-25T01:46:58.269Z,99736
2017-07-25T01:47:57.654Z,99737
2017-07-25T01:48:57.768Z,99737
2017-07-25T01:49:58.554Z,99740
2017-07-25T01:50:57.735Z,99729
2017-07-25T01:51:57.897Z,99735
2017-07-25T01:52:58.856Z,99736
2017-07-25T01:54:00.195Z,99738
2017-07-25T01:54:59.671Z,99735
2017-07-25T01:55:59.050Z,99730
2017-07-25T01:56:59.815Z,99732
2017-07-25T01:57:58.139Z,99731
2017-07-25T01:58:58.275Z,99731
2017-07-25T01:59:58.241Z,99728
2017-07-25T02:00:58.190Z,99729
2017-07-25T02:02:00.011Z,99725
2017-07-25T02:02:59.311Z,99729
2017-07-25T02:03:58.442Z,99730
2017-07-25T02:04:59.383Z,99730
2017-07-25T02:05:58.541Z,99728
2017-07-25T02:06:58.499Z,99727
2017-07-25T02:07:59.603Z,99729
2017-07-25T02:08:58.774Z,99741
2017-07-25T02:09:59.859Z,99739
2017-07-25T02:10:58.769Z,99729
2017-07-25T02:11:58.911Z,99736
2017-07-25T02:12:59.606Z,99737
2017-07-25T02:13:59.011Z,99733
2017-07-25T02:14:59.091Z,99731
2017-07-25T02:15:59.158Z,99743
2017-07-25T02:17:00.798Z,99742
2017-07-25T02:18:00.190Z,99738
2017-07-25T02:18:59.449Z,99741
2017-07-25T02:20:00.912Z,99733
2017-07-25T02:20:59.354Z,99739
2017-07-25T02:21:59.280Z,99736
2017-07-25T02:23:00.321Z,99736
2017-07-25T02:23:59.539Z,99739
2017-07-25T02:24:59.468Z,99735
2017-07-25T02:25:59.676Z,99737
2017-07-25T02:26:59.557Z,99738
2017-07-25T02:27:59.562Z,99737
2017-07-25T02:28:59.630Z,99736
2017-07-25T02:29:59.794Z,99733
2017-07-25T02:30:59.756Z,99735
2017-07-25T02:31:59.973Z,99734
2017-07-25T02:32:59.983Z,99735
2017-07-25T02:34:00.099Z,99731
2017-07-25T02:35:00.082Z,99732
2017-07-25T02:36:01.881Z,99735
2017-07-25T02:37:01.809Z,99730
2017-07-25T02:38:00.175Z,99732
2017-07-25T02:39:01.987Z,99732
2017-07-25T02:40:00.353Z,99732
2017-07-25T02:41:01.294Z,99731
2017-07-25T02:42:00.363Z,99735
2017-07-25T02:43:00.483Z,99730
2017-07-25T02:44:01.314Z,99735
2017-07-25T02:45:02.261Z,99737
2017-07-25T02:46:02.289Z,99732
2017-07-25T02:47:00.656Z,99728
2017-07-25T02:48:01.687Z,99733
2017-07-25T02:49:00.779Z,99730
2017-07-25T02:50:02.587Z,99725
2017-07-25T02:51:02.673Z,99725
2017-07-25T02:52:02.559Z,99729
2017-07-25T02:53:01.125Z,99723
2017-07-25T02:54:01.076Z,99731
2017-07-25T02:55:01.024Z,99731
2017-07-25T02:56:02.053Z,99724
2017-07-25T02:57:02.108Z,99726
2017-07-25T02:58:01.230Z,99729
2017-07-25T02:59:01.388Z,99723
2017-07-25T03:00:01.409Z,99727
2017-07-25T03:01:01.329Z,99726
2017-07-25T03:02:02.096Z,99726
2017-07-25T03:03:01.502Z,99729
2017-07-25T03:04:01.573Z,99727
2017-07-25T03:05:03.429Z,99726
2017-07-25T03:06:01.828Z,99726
2017-07-25T03:07:01.899Z,99724
2017-07-25T03:08:01.884Z,99722
2017-07-25T03:09:01.873Z,99722
2017-07-25T03:10:03.037Z,99722
2017-07-25T03:11:02.110Z,99720
2017-07-25T03:12:02.076Z,99713
2017-07-25T03:13:03.160Z,99717
2017-07-25T03:14:03.228Z,99709
2017-07-25T03:15:02.243Z,99707
2017-07-25T03:16:02.321Z,99715
2017-07-25T03:17:02.520Z,99717
2017-07-25T03:18:03.450Z,99717
2017-07-25T03:19:02.637Z,99717
2017-07-25T03:20:02.662Z,99718
2017-07-25T03:21:04.368Z,99717
2017-07-25T03:22:03.712Z,99710
2017-07-25T03:23:02.945Z,99716
2017-07-25T03:24:04.583Z,99711
2017-07-25T03:25:04.012Z,99718
2017-07-25T03:26:04.034Z,99718
2017-07-25T03:27:03.108Z,99715
2017-07-25T03:28:03.178Z,99718
2017-07-25T03:29:04.041Z,99716
2017-07-25T03:30:03.308Z,99713
2017-07-25T03:31:03.243Z,99714
2017-07-25T03:32:04.184Z,99706
2017-07-25T03:33:04.545Z,99717
2017-07-25T03:34:04.292Z,99715
2017-07-25T03:35:03.401Z,99710
2017-07-25T03:36:03.584Z,99714
2017-07-25T03:37:05.288Z,99706
2017-07-25T03:38:05.202Z,99699
2017-07-25T03:39:05.205Z,99707
2017-07-25T03:40:05.376Z,99708
2017-07-25T03:41:04.742Z,99707
2017-07-25T03:42:04.810Z,99708
2017-07-25T03:43:03.951Z,99706
2017-07-25T03:44:05.659Z,99700
2017-07-25T03:45:03.962Z,99695
2017-07-25T03:46:04.057Z,99702
2017-07-25T03:47:04.123Z,99703
2017-07-25T03:48:05.163Z,99704
2017-07-25T03:49:04.125Z,99699
2017-07-25T03:50:05.097Z,99698
2017-07-25T03:51:04.225Z,99694
2017-07-25T03:52:06.084Z,99701
2017-07-25T03:53:04.426Z,99701
2017-07-25T03:54:04.377Z,99701
2017-07-25T03:55:05.444Z,99690
2017-07-25T03:56:04.641Z,99698
2017-07-25T03:57:04.639Z,99701
2017-07-25T03:58:05.796Z,99698
2017-07-25T03:59:06.581Z,99699
2017-07-25T04:00:04.935Z,99695
2017-07-25T04:01:04.856Z,99695
2017-07-25T04:02:05.894Z,99696
2017-07-25T04:03:06.652Z,99699
2017-07-25T04:04:05.121Z,99697
2017-07-25T04:05:05.098Z,99696
2017-07-25T04:06:06.904Z,99696
2017-07-25T04:07:06.899Z,99696
2017-07-25T04:08:05.302Z,99686
2017-07-25T04:09:06.224Z,99695
2017-07-25T04:10:05.871Z,99694
2017-07-25T04:11:06.434Z,99689
2017-07-25T04:12:07.177Z,99690
2017-07-25T04:13:07.262Z,99689
2017-07-25T04:14:06.607Z,99682
2017-07-25T04:15:05.658Z,99681
2017-07-25T04:16:07.433Z,99686
2017-07-25T04:17:08.481Z,99683
2017-07-25T04:18:05.785Z,99687
2017-07-25T04:19:06.933Z,99691
2017-07-25T04:20:07.617Z,99690
2017-07-25T04:21:07.073Z,99692
2017-07-25T04:22:07.154Z,99693
2017-07-25T04:23:07.841Z,99697
2017-07-25T04:24:06.312Z,99694
2017-07-25T04:25:07.392Z,99695
2017-07-25T04:26:08.102Z,99692
2017-07-25T04:27:06.471Z,99692
2017-07-25T04:28:07.494Z,99687
2017-07-25T04:29:06.722Z,99684
2017-07-25T04:30:06.524Z,99689
2017-07-25T04:31:08.336Z,99687
2017-07-25T04:32:06.651Z,99685
2017-07-25T04:33:07.680Z,99683
2017-07-25T04:34:08.481Z,99681
2017-07-25T04:35:07.110Z,99684
2017-07-25T04:36:09.041Z,99684
2017-07-25T04:37:06.799Z,99682
2017-07-25T04:38:08.473Z,99680
2017-07-25T04:39:06.822Z,99680
2017-07-25T04:40:08.611Z,99684
2017-07-25T04:41:08.587Z,99684
2017-07-25T04:42:07.960Z,99670
2017-07-25T04:43:06.903Z,99680
2017-07-25T04:44:07.059Z,99684
2017-07-25T04:45:07.110Z,99683
2017-07-25T04:46:07.151Z,99684
2017-07-25T04:47:07.304Z,99685
2017-07-25T04:48:07.239Z,99683
2017-07-25T04:49:08.255Z,99683
2017-07-25T04:50:07.438Z,99681
2017-07-25T04:51:07.533Z,99681
2017-07-25T04:52:07.573Z,99681
2017-07-25T04:53:07.518Z,99678
2017-07-25T04:54:08.538Z,99679
2017-07-25T04:55:09.436Z,99677
2017-07-25T04:56:09.469Z,99674
2017-07-25T04:57:09.429Z,99670
2017-07-25T04:58:08.895Z,99666
2017-07-25T04:59:09.620Z,99668
2017-07-25T05:00:09.701Z,99662
2017-07-25T05:01:08.013Z,99665
2017-07-25T05:02:08.149Z,99662
2017-07-25T05:03:08.140Z,99660
2017-07-25T05:04:09.897Z,99658
2017-07-25T05:05:08.173Z,99658
2017-07-25T05:06:09.978Z,99660
2017-07-25T05:07:09.282Z,99664
2017-07-25T05:08:09.326Z,99663
2017-07-25T05:09:08.358Z,99663
2017-07-25T05:10:09.350Z,99665
2017-07-25T05:11:08.422Z,99664
2017-07-25T05:12:10.215Z,99654
2017-07-25T05:13:08.579Z,99655
2017-07-25T05:14:10.365Z,99666
2017-07-25T05:15:09.661Z,99664
2017-07-25T05:16:08.715Z,99660
2017-07-25T05:17:09.741Z,99662
2017-07-25T05:18:09.665Z,99660
2017-07-25T05:19:08.783Z,99664
2017-07-25T05:20:08.811Z,99667
2017-07-25T05:21:10.610Z,99667
2017-07-25T05:22:08.998Z,99665
2017-07-25T05:23:10.573Z,99672
2017-07-25T05:24:09.939Z,99659
2017-07-25T05:25:09.080Z,99656
2017-07-25T05:26:10.087Z,99667
2017-07-25T05:27:09.046Z,99665
2017-07-25T05:28:10.012Z,99665
2017-07-25T05:29:10.841Z,99665
2017-07-25T05:30:10.859Z,99664
2017-07-25T05:31:10.217Z,99663
2017-07-25T05:32:09.388Z,99664
2017-07-25T05:33:09.491Z,99656
2017-07-25T05:34:09.444Z,99654
2017-07-25T05:35:11.264Z,99662
2017-07-25T05:36:10.505Z,99661
2017-07-25T05:37:09.715Z,99660
2017-07-25T05:38:11.399Z,99648
2017-07-25T05:39:09.813Z,99649
2017-07-25T05:40:10.743Z,99652
2017-07-25T05:41:09.976Z,99652
2017-07-25T05:42:11.619Z,99652
2017-07-25T05:43:11.739Z,99647
2017-07-25T05:44:11.674Z,99654
2017-07-25T05:45:10.130Z,99656
2017-07-25T05:46:10.101Z,99657
2017-07-25T05:47:10.181Z,99657
2017-07-25T05:48:11.090Z,99653
2017-07-25T05:49:11.345Z,99653
2017-07-25T05:50:12.040Z,99647
2017-07-25T05:51:10.545Z,99653
2017-07-25T05:52:10.517Z,99656
2017-07-25T05:53:10.618Z,99643
2017-07-25T05:54:11.489Z,99654
2017-07-25T05:55:10.700Z,99654
2017-07-25T05:56:10.758Z,99659
2017-07-25T05:57:10.829Z,99646
2017-07-25T05:58:11.848Z,99653
2017-07-25T05:59:11.901Z,99653
2017-07-25T06:00:10.865Z,99656
2017-07-25T06:01:11.834Z,99649
2017-07-25T06:02:12.011Z,99657
2017-07-25T06:03:11.129Z,99653
2017-07-25T06:04:12.760Z,99651
2017-07-25T06:05:11.087Z,99652
2017-07-25T06:06:12.228Z,99649
2017-07-25T06:07:12.250Z,99646
2017-07-25T06:08:12.988Z,99643
2017-07-25T06:09:12.166Z,99647
2017-07-25T06:10:11.301Z,99646
2017-07-25T06:11:12.343Z,99633
2017-07-25T06:12:12.302Z,99643
2017-07-25T06:13:13.072Z,99640
2017-07-25T06:14:11.529Z,99635
2017-07-25T06:15:11.565Z,99639
2017-07-25T06:16:14.673Z,99628
2017-07-25T06:17:11.506Z,99632
2017-07-25T06:18:11.582Z,99641
2017-07-25T06:19:11.574Z,99639
2017-07-25T06:20:11.640Z,99639
2017-07-25T06:21:12.687Z,99643
2017-07-25T06:22:11.741Z,99640
2017-07-25T06:23:13.494Z,99644
2017-07-25T06:24:11.934Z,99640
2017-07-25T06:25:11.888Z,99642
2017-07-25T06:26:12.057Z,99641
2017-07-25T06:27:13.081Z,99643
2017-07-25T06:28:12.191Z,99639
2017-07-25T06:29:12.241Z,99640
2017-07-25T06:30:13.157Z,99640
2017-07-25T06:31:12.285Z,99630
2017-07-25T06:32:12.366Z,99630
2017-07-25T06:33:12.491Z,99636
2017-07-25T06:34:13.423Z,99628
2017-07-25T06:35:12.540Z,99629
2017-07-25T06:36:13.665Z,99638
2017-07-25T06:37:14.351Z,99637
2017-07-25T06:38:13.562Z,99639
2017-07-25T06:39:14.425Z,99644
2017-07-25T06:40:13.661Z,99641
2017-07-25T06:41:12.786Z,99643
2017-07-25T06:42:14.462Z,99642
2017-07-25T06:43:14.792Z,99646
2017-07-25T06:44:14.696Z,99644
2017-07-25T06:45:12.945Z,99645
2017-07-25T06:46:13.598Z,99644
2017-07-25T06:47:13.176Z,99645
2017-07-25T06:48:13.121Z,99648
2017-07-25T06:49:14.135Z,99650
2017-07-25T06:50:14.208Z,99653
2017-07-25T06:51:15.161Z,99655
2017-07-25T06:52:14.393Z,99662
2017-07-25T06:53:15.126Z,99660
2017-07-25T06:54:13.514Z,99659
2017-07-25T06:55:14.552Z,99662
2017-07-25T06:56:13.791Z,99658
2017-07-25T06:57:15.335Z,99657
2017-07-25T06:58:13.721Z,99659
2017-07-25T06:59:14.234Z,99653
2017-07-25T07:00:15.500Z,99655
2017-07-25T07:01:14.522Z,99657
2017-07-25T07:02:15.565Z,99656
2017-07-25T07:03:14.075Z,99651
2017-07-25T07:04:15.127Z,99661
2017-07-25T07:05:14.060Z,99662
2017-07-25T07:06:14.171Z,99657
2017-07-25T07:07:15.865Z,99658
2017-07-25T07:08:15.091Z,99656
2017-07-25T07:09:15.119Z,99657
2017-07-25T07:10:14.318Z,99659
2017-07-25T07:11:14.367Z,99650
2017-07-25T07:12:14.290Z,99653
2017-07-25T07:13:15.987Z,99659
2017-07-25T07:14:15.276Z,99657
2017-07-25T07:15:16.195Z,99645
2017-07-25T07:16:14.479Z,99659
2017-07-25T07:17:17.518Z,99661
2017-07-25T07:18:14.636Z,99657
2017-07-25T07:19:16.330Z,99660
2017-07-25T07:20:15.657Z,99666
2017-07-25T07:21:16.861Z,99669
2017-07-25T07:22:16.598Z,99660
2017-07-25T07:23:15.709Z,99670
2017-07-25T07:24:16.506Z,99669
2017-07-25T07:25:14.905Z,99673
2017-07-25T07:26:17.298Z,99672
2017-07-25T07:27:15.514Z,99673
2017-07-25T07:28:14.988Z,99674
2017-07-25T07:29:17.938Z,99673
2017-07-25T07:30:17.875Z,99663
2017-07-25T07:31:18.097Z,99669
2017-07-25T07:32:16.826Z,99675
2017-07-25T07:33:15.241Z,99677
2017-07-25T07:34:15.206Z,99674
2017-07-25T07:35:15.321Z,99681
2017-07-25T07:36:16.387Z,99676
2017-07-25T07:37:17.166Z,99682
2017-07-25T07:38:15.419Z,99680
2017-07-25T07:39:17.196Z,99678
2017-07-25T07:40:15.639Z,99675
2017-07-25T07:41:16.646Z,99681
2017-07-25T07:42:15.737Z,99678
2017-07-25T07:43:17.308Z,99676
2017-07-25T07:44:16.716Z,99687
2017-07-25T07:45:17.343Z,99684
2017-07-25T07:46:15.725Z,99686
2017-07-25T07:47:15.855Z,99681
2017-07-25T07:48:15.936Z,99682
2017-07-25T07:49:18.144Z,99679
2017-07-25T07:50:15.847Z,99683
2017-07-25T07:51:16.011Z,99674
2017-07-25T07:52:19.104Z,99673
2017-07-25T07:53:17.014Z,99685
2017-07-25T07:54:16.121Z,99685
2017-07-25T07:55:16.135Z,99687
2017-07-25T07:56:16.041Z,99684
2017-07-25T07:57:18.426Z,99683
2017-07-25T07:58:17.920Z,99689
2017-07-25T07:59:17.139Z,99676
2017-07-25T08:00:16.229Z,99684
2017-07-25T08:01:17.393Z,99682
2017-07-25T08:02:18.078Z,99677
2017-07-25T08:03:18.173Z,99677
2017-07-25T08:04:17.628Z,99690
2017-07-25T08:05:18.282Z,99687
2017-07-25T08:06:16.705Z,99687
2017-07-25T08:07:17.780Z,99677
2017-07-25T08:08:17.495Z,99685
2017-07-25T08:09:16.991Z,99686
2017-07-25T08:10:16.934Z,99679
2017-07-25T08:11:18.049Z,99688
2017-07-25T08:12:19.827Z,99675
2017-07-25T08:13:17.127Z,99674
2017-07-25T08:14:17.733Z,99686
2017-07-25T08:15:18.339Z,99685
2017-07-25T08:16:19.037Z,99685
2017-07-25T08:17:20.368Z,99684
2017-07-25T08:18:18.026Z,99687
2017-07-25T08:19:17.552Z,99681
2017-07-25T08:20:19.024Z,99686
2017-07-25T08:21:17.609Z,99676
2017-07-25T08:22:19.290Z,99676
2017-07-25T08:23:20.613Z,99684
2017-07-25T08:24:17.656Z,99681
2017-07-25T08:25:17.892Z,99681
2017-07-25T08:26:18.889Z,99679
2017-07-25T08:27:19.672Z,99677
2017-07-25T08:28:19.571Z,99673
2017-07-25T08:29:19.814Z,99676
2017-07-25T08:30:19.205Z,99677
2017-07-25T08:31:19.873Z,99680
2017-07-25T08:32:18.389Z,99675
2017-07-25T08:33:20.697Z,99678
2017-07-25T08:34:18.340Z,99681
2017-07-25T08:35:18.358Z,99681
2017-07-25T08:36:20.101Z,99678
2017-07-25T08:37:18.539Z,99681
2017-07-25T08:38:19.550Z,99678
2017-07-25T08:39:19.335Z,99677
2017-07-25T08:40:18.748Z,99681
2017-07-25T08:41:19.438Z,99677
2017-07-25T08:42:18.852Z,99682
2017-07-25T08:43:19.815Z,99669
2017-07-25T08:44:18.853Z,99669
2017-07-25T08:45:20.508Z,99676
2017-07-25T08:46:18.903Z,99670
2017-07-25T08:47:18.934Z,99669
2017-07-25T08:48:19.996Z,99679
2017-07-25T08:49:19.101Z,99672
2017-07-25T08:50:19.141Z,99671
2017-07-25T08:51:20.841Z,99667
2017-07-25T08:52:19.085Z,99671
2017-07-25T08:53:19.165Z,99669
2017-07-25T08:54:19.871Z,99665
2017-07-25T08:55:21.478Z,99677
2017-07-25T08:56:19.317Z,99674
2017-07-25T08:57:20.406Z,99675
2017-07-25T08:58:20.042Z,99672
2017-07-25T08:59:19.537Z,99675
2017-07-25T09:00:19.601Z,99678
2017-07-25T09:01:20.594Z,99682
2017-07-25T09:02:19.694Z,99676
2017-07-25T09:03:19.637Z,99676
2017-07-25T09:04:19.810Z,99677
2017-07-25T09:05:20.774Z,99674
2017-07-25T09:06:20.868Z,99672
2017-07-25T09:07:23.925Z,99668
2017-07-25T09:08:19.997Z,99669
2017-07-25T09:09:20.117Z,99669
2017-07-25T09:10:21.760Z,99663
2017-07-25T09:11:20.150Z,99668
2017-07-25T09:12:22.003Z,99677
2017-07-25T09:13:22.084Z,99674
2017-07-25T09:14:22.112Z,99673
2017-07-25T09:15:20.382Z,99669
2017-07-25T09:16:20.555Z,99672
2017-07-25T09:17:20.490Z,99670
2017-07-25T09:18:21.517Z,99669
2017-07-25T09:19:20.768Z,99670
2017-07-25T09:20:22.355Z,99666
2017-07-25T09:21:20.684Z,99667
2017-07-25T09:22:22.998Z,99653
2017-07-25T09:23:20.753Z,99663
2017-07-25T09:24:22.448Z,99658
2017-07-25T09:25:20.869Z,99659
2017-07-25T09:26:23.805Z,99654
2017-07-25T09:27:22.528Z,99653
2017-07-25T09:28:20.949Z,99657
2017-07-25T09:29:21.173Z,99664
2017-07-25T09:30:22.791Z,99654
2017-07-25T09:31:21.243Z,99659
2017-07-25T09:32:22.923Z,99658
2017-07-25T09:33:22.916Z,99655
2017-07-25T09:34:22.330Z,99644
2017-07-25T09:35:21.333Z,99651
2017-07-25T09:36:23.126Z,99650
2017-07-25T09:37:21.345Z,99649
2017-07-25T09:38:22.136Z,99651
2017-07-25T09:39:21.538Z,99654
2017-07-25T09:40:22.620Z,99644
2017-07-25T09:41:23.126Z,99650
2017-07-25T09:42:21.885Z,99649
2017-07-25T09:43:22.696Z,99639
2017-07-25T09:44:21.770Z,99642
2017-07-25T09:45:22.427Z,99642
2017-07-25T09:46:23.620Z,99640
2017-07-25T09:47:21.997Z,99640
2017-07-25T09:48:22.984Z,99629
2017-07-25T09:49:22.964Z,99639
2017-07-25T09:50:22.069Z,99632
2017-07-25T09:51:22.018Z,99635
2017-07-25T09:52:22.598Z,99632
2017-07-25T09:53:22.803Z,99634
2017-07-25T09:54:23.210Z,99622
2017-07-25T09:55:22.239Z,99631
2017-07-25T09:56:22.326Z,99627
2017-07-25T09:57:24.774Z,99633
2017-07-25T09:58:24.857Z,99627
2017-07-25T09:59:23.621Z,99627
2017-07-25T10:00:23.196Z,99630
2017-07-25T10:01:23.271Z,99626
2017-07-25T10:02:24.522Z,99615
2017-07-25T10:03:24.626Z,99618
2017-07-25T10:04:22.956Z,99624
2017-07-25T10:05:24.153Z,99620
2017-07-25T10:06:26.209Z,99613
2017-07-25T10:07:23.247Z,99616
2017-07-25T10:08:25.748Z,99605
2017-07-25T10:09:24.953Z,99614
2017-07-25T10:10:24.173Z,99605
2017-07-25T10:11:24.565Z,99615
2017-07-25T10:12:25.165Z,99611
2017-07-25T10:13:24.076Z,99618
2017-07-25T10:14:25.313Z,99621
2017-07-25T10:15:23.621Z,99620
2017-07-25T10:16:24.396Z,99608
2017-07-25T10:17:25.486Z,99617
2017-07-25T10:18:25.493Z,99618
2017-07-25T10:19:24.615Z,99616
2017-07-25T10:20:25.966Z,99613
2017-07-25T10:21:26.111Z,99614
2017-07-25T10:22:23.930Z,99611
2017-07-25T10:23:24.144Z,99614
2017-07-25T10:24:24.226Z,99609
2017-07-25T10:25:24.301Z,99610
2017-07-25T10:26:25.357Z,99604
2017-07-25T10:27:24.913Z,99605
2017-07-25T10:28:24.317Z,99608
2017-07-25T10:29:24.377Z,99605
2017-07-25T10:30:24.533Z,99606
2017-07-25T10:31:26.936Z,99606
2017-07-25T10:32:25.483Z,99601
2017-07-25T10:33:24.698Z,99603
2017-07-25T10:34:25.654Z,99603
2017-07-25T10:35:26.436Z,99603
2017-07-25T10:36:25.819Z,99602
2017-07-25T10:37:24.853Z,99597
2017-07-25T10:38:26.640Z,99595
2017-07-25T10:39:26.579Z,99595
2017-07-25T10:40:24.976Z,99592
2017-07-25T10:41:26.116Z,99599
2017-07-25T10:42:27.317Z,99593
2017-07-25T10:43:25.346Z,99594
2017-07-25T10:44:26.267Z,99586
2017-07-25T10:45:27.149Z,99595
2017-07-25T10:46:27.032Z,99586
2017-07-25T10:47:26.486Z,99583
2017-07-25T10:48:27.791Z,99581
2017-07-25T10:49:27.138Z,99578
2017-07-25T10:50:27.128Z,99580
2017-07-25T10:51:27.364Z,99568
2017-07-25T10:52:25.614Z,99574
2017-07-25T10:53:25.747Z,99576
2017-07-25T10:54:25.779Z,99575
2017-07-25T10:55:25.765Z,99572
2017-07-25T10:56:26.860Z,99575
2017-07-25T10:57:27.613Z,99574
2017-07-25T10:58:26.506Z,99564
2017-07-25T10:59:27.002Z,99567
2017-07-25T11:00:27.770Z,99568
2017-07-25T11:01:27.012Z,99558
2017-07-25T11:02:26.708Z,99563
2017-07-25T11:03:26.221Z,99554
2017-07-25T11:04:27.989Z,99562
2017-07-25T11:05:26.354Z,99562
2017-07-25T11:06:27.217Z,99568
2017-07-25T11:07:27.385Z,99556
2017-07-25T11:08:28.075Z,99559
2017-07-25T11:09:28.167Z,99565
2017-07-25T11:10:27.465Z,99564
2017-07-25T11:11:26.503Z,99551
2017-07-25T11:12:26.557Z,99558
2017-07-25T11:13:27.619Z,99561
2017-07-25T11:14:28.376Z,99557
2017-07-25T11:15:26.752Z,99559
2017-07-25T11:16:28.356Z,99544
2017-07-25T11:17:27.758Z,99549
2017-07-25T11:18:26.706Z,99561
2017-07-25T11:19:26.832Z,99558
2017-07-25T11:20:28.405Z,99556
2017-07-25T11:21:26.805Z,99557
2017-07-25T11:22:28.500Z,99557
2017-07-25T11:23:26.897Z,99562
2017-07-25T11:24:28.642Z,99556
2017-07-25T11:25:28.832Z,99551
2017-07-25T11:26:27.100Z,99549
2017-07-25T11:27:29.483Z,99549
2017-07-25T11:28:27.685Z,99552
2017-07-25T11:29:28.311Z,99554
2017-07-25T11:30:29.745Z,99547
2017-07-25T11:31:27.508Z,99549
2017-07-25T11:32:30.920Z,99545
2017-07-25T11:33:29.332Z,99553
2017-07-25T11:34:27.732Z,99543
2017-07-25T11:35:28.772Z,99551
2017-07-25T11:36:29.761Z,99553
2017-07-25T11:37:27.724Z,99544
2017-07-25T11:38:28.696Z,99539
2017-07-25T11:39:28.665Z,99547
2017-07-25T11:40:28.027Z,99541
2017-07-25T11:41:30.311Z,99544
2017-07-25T11:42:28.095Z,99544
2017-07-25T11:43:28.145Z,99543
2017-07-25T11:44:28.290Z,99547
2017-07-25T11:45:29.217Z,99532
2017-07-25T11:46:28.354Z,99546
2017-07-25T11:47:29.126Z,99542
2017-07-25T11:48:30.012Z,99542
2017-07-25T11:49:31.234Z,99540
2017-07-25T11:50:29.421Z,99543
2017-07-25T11:51:28.630Z,99544
2017-07-25T11:52:29.694Z,99535
2017-07-25T11:53:30.437Z,99539
2017-07-25T11:54:28.770Z,99544
2017-07-25T11:55:28.934Z,99541
2017-07-25T11:56:29.491Z,99542
2017-07-25T11:57:31.666Z,99539
2017-07-25T11:58:30.041Z,99545
2017-07-25T11:59:30.478Z,99532
2017-07-25T12:00:30.713Z,99535
2017-07-25T12:01:29.170Z,99532
2017-07-25T12:02:30.840Z,99532
2017-07-25T12:03:30.827Z,99542
2017-07-25T12:04:29.761Z,99541
2017-07-25T12:05:29.247Z,99540
2017-07-25T12:06:30.888Z,99536
2017-07-25T12:07:29.357Z,99535
2017-07-25T12:08:30.171Z,99536
2017-07-25T12:09:29.428Z,99540
2017-07-25T12:10:29.442Z,99540
2017-07-25T12:11:29.566Z,99536
2017-07-25T12:12:29.767Z,99530
2017-07-25T12:13:31.305Z,99539
2017-07-25T12:14:30.669Z,99533
2017-07-25T12:15:31.519Z,99527
2017-07-25T12:16:30.842Z,99537
2017-07-25T12:17:29.961Z,99538
2017-07-25T12:18:30.929Z,99531
2017-07-25T12:19:29.969Z,99536
2017-07-25T12:20:32.415Z,99535
2017-07-25T12:21:31.700Z,99531
2017-07-25T12:22:32.087Z,99532
2017-07-25T12:23:30.348Z,99528
2017-07-25T12:24:32.017Z,99528
2017-07-25T12:25:31.428Z,99524
2017-07-25T12:26:31.319Z,99534
2017-07-25T12:27:30.410Z,99522
2017-07-25T12:28:31.491Z,99524
2017-07-25T12:29:33.677Z,99530
2017-07-25T12:30:30.695Z,99524
2017-07-25T12:31:31.707Z,99526
2017-07-25T12:32:31.676Z,99528
2017-07-25T12:33:30.703Z,99530
2017-07-25T12:34:30.708Z,99528
2017-07-25T12:35:31.758Z,99528
2017-07-25T12:36:30.945Z,99532
2017-07-25T12:37:33.249Z,99526
2017-07-25T12:38:31.051Z,99529
2017-07-25T12:39:30.972Z,99529
2017-07-25T12:40:32.869Z,99528
2017-07-25T12:41:32.412Z,99527
2017-07-25T12:42:31.927Z,99526
2017-07-25T12:43:32.846Z,99529
2017-07-25T12:44:33.038Z,99530
2017-07-25T12:45:31.933Z,99528
2017-07-25T12:46:31.552Z,99527
2017-07-25T12:47:33.198Z,99519
2017-07-25T12:48:32.125Z,99517
2017-07-25T12:49:33.349Z,99526
2017-07-25T12:50:31.774Z,99527
2017-07-25T12:51:33.507Z,99527
2017-07-25T12:52:33.394Z,99523
2017-07-25T12:53:33.607Z,99521